createdAt,value
2022-12-17T00:02:00.836Z,101.37
2022-12-17T00:05:06.556Z,102.87
2022-12-17T00:08:16.771Z,87.93
2022-12-17T00:11:17.248Z,86.33
2022-12-17T00:14:21.433Z,75.80
2022-12-17T00:17:26.142Z,79.33
2022-12-17T00:20:31.650Z,96.57
2022-12-17T00:23:36.044Z,95.83
2022-12-17T00:26:40.232Z,83.53
2022-12-17T00:29:44.438Z,87.87
2022-12-17T00:32:48.524Z,94.93
2022-12-17T00:35:54.103Z,109.60
2022-12-17T00:39:01.375Z,85.87
2022-12-17T00:42:05.481Z,103.50
2022-12-17T00:45:09.752Z,94.73
2022-12-17T00:48:13.921Z,101.57
2022-12-17T00:51:19.415Z,84.57
2022-12-17T00:54:23.448Z,104.13
2022-12-17T00:57:27.468Z,96.67
2022-12-17T01:00:32.325Z,86.37
2022-12-17T01:03:37.728Z,91.33
2022-12-17T01:06:45.351Z,89.67
2022-12-17T01:09:50.332Z,85.93
2022-12-17T01:12:54.181Z,70.63
2022-12-17T01:16:00.430Z,83.30
2022-12-17T01:19:04.460Z,89.03
2022-12-17T01:22:15.376Z,92.07
2022-12-17T01:25:19.608Z,95.63
2022-12-17T01:28:23.714Z,85.77
2022-12-17T01:31:34.355Z,76.13
2022-12-17T01:34:39.215Z,83.97
2022-12-17T01:37:44.669Z,79.73
2022-12-17T01:40:48.998Z,87.60
2022-12-17T01:43:56.157Z,81.87
2022-12-17T01:47:08.714Z,69.50
2022-12-17T01:50:21.314Z,88.67
2022-12-17T01:53:28.172Z,81.80
2022-12-17T01:56:33.028Z,83.57
2022-12-17T01:59:43.935Z,74.10
2022-12-17T02:02:48.232Z,84.70
2022-12-17T02:06:00.592Z,73.43
2022-12-17T02:09:16.794Z,83.93
2022-12-17T02:12:29.967Z,83.63
2022-12-17T02:15:39.919Z,79.87
2022-12-17T02:18:49.216Z,81.47
2022-12-17T02:21:58.232Z,72.37
2022-12-17T02:25:12.351Z,70.00
2022-12-17T02:28:18.159Z,88.63
2022-12-17T02:31:22.852Z,72.00
2022-12-17T02:34:27.493Z,85.50
2022-12-17T02:37:33.117Z,82.50
2022-12-17T02:40:39.331Z,72.10
2022-12-17T02:43:46.780Z,61.43
2022-12-17T02:46:52.545Z,69.87
2022-12-17T02:49:58.615Z,75.33
2022-12-17T02:53:01.646Z,76.63
2022-12-17T02:56:05.866Z,79.63
2022-12-17T02:59:13.832Z,77.37
2022-12-17T03:02:18.308Z,74.83
2022-12-17T03:05:43.887Z,81.23
2022-12-17T03:08:46.462Z,71.70
2022-12-17T03:11:50.675Z,77.73
2022-12-17T03:14:56.099Z,62.47
2022-12-17T03:18:00.164Z,79.27
2022-12-17T03:21:04.149Z,80.63
2022-12-17T03:24:08.320Z,77.50
2022-12-17T03:27:12.435Z,71.20
2022-12-17T03:30:18.484Z,67.97
2022-12-17T03:33:22.696Z,64.97
2022-12-17T03:36:27.297Z,64.97
2022-12-17T03:39:31.348Z,63.83
2022-12-17T03:42:35.444Z,69.83
2022-12-17T03:45:40.891Z,62.53
2022-12-17T03:48:45.246Z,58.47
2022-12-17T03:51:49.515Z,72.20
2022-12-17T03:54:53.525Z,61.23
2022-12-17T03:57:57.529Z,53.90
2022-12-17T04:01:03.134Z,67.37
2022-12-17T04:04:07.745Z,54.83
2022-12-17T04:07:11.771Z,55.60
2022-12-17T04:10:15.923Z,60.50
2022-12-17T04:13:20.199Z,62.57
2022-12-17T04:16:26.095Z,73.50
2022-12-17T04:19:30.190Z,54.63
2022-12-17T04:22:34.471Z,56.73
2022-12-17T04:25:38.551Z,58.17
2022-12-17T04:28:42.706Z,53.23
2022-12-17T04:31:47.839Z,55.37
2022-12-17T04:34:51.878Z,62.17
2022-12-17T04:37:56.107Z,57.47
2022-12-17T04:41:00.298Z,49.77
2022-12-17T04:44:04.454Z,63.17
2022-12-17T04:47:10.112Z,66.83
2022-12-17T04:50:14.311Z,63.77
2022-12-17T04:53:19.424Z,69.00
2022-12-17T04:56:23.988Z,55.53
2022-12-17T04:59:27.985Z,60.80
2022-12-17T05:02:36.080Z,52.17
2022-12-17T05:05:43.428Z,60.93
2022-12-17T05:08:47.673Z,63.43
2022-12-17T05:11:52.620Z,52.80
2022-12-17T05:14:56.860Z,52.80
2022-12-17T05:18:02.928Z,57.50
2022-12-17T05:21:18.485Z,53.13
2022-12-17T05:24:23.176Z,53.07
2022-12-17T05:27:27.785Z,56.13
2022-12-17T05:30:31.890Z,56.00
2022-12-17T05:33:36.273Z,41.07
2022-12-17T05:36:42.552Z,60.03
2022-12-17T05:39:46.789Z,42.20
2022-12-17T05:42:50.961Z,43.50
2022-12-17T05:45:57.199Z,57.70
2022-12-17T05:49:01.270Z,47.93
2022-12-17T05:52:07.421Z,61.33
2022-12-17T05:55:11.532Z,49.73
2022-12-17T05:58:21.071Z,46.87
2022-12-17T06:01:25.883Z,60.63
2022-12-17T06:04:30.351Z,61.87
2022-12-17T06:07:36.163Z,69.50
2022-12-17T06:10:40.041Z,53.87
2022-12-17T06:13:44.193Z,62.27
2022-12-17T06:16:48.545Z,44.43
2022-12-17T06:19:52.729Z,49.77
2022-12-17T06:22:57.929Z,57.97
2022-12-17T06:26:01.849Z,51.40
2022-12-17T06:29:17.588Z,51.53
2022-12-17T06:32:21.867Z,54.73
2022-12-17T06:35:27.031Z,57.53
2022-12-17T06:38:32.548Z,51.87
2022-12-17T06:41:36.506Z,58.50
2022-12-17T06:44:40.745Z,53.73
2022-12-17T06:47:44.820Z,60.43
2022-12-17T06:50:48.922Z,55.57
2022-12-17T06:53:54.494Z,54.27
2022-12-17T06:56:58.671Z,57.57
2022-12-17T07:00:02.922Z,54.40
2022-12-17T07:03:13.027Z,50.53
2022-12-17T07:06:19.654Z,64.43
2022-12-17T07:09:25.183Z,54.50
2022-12-17T07:12:29.462Z,61.93
2022-12-17T07:15:33.609Z,59.43
2022-12-17T07:18:37.763Z,72.63
2022-12-17T07:21:42.344Z,64.07
2022-12-17T07:24:48.288Z,49.57
2022-12-17T07:27:52.545Z,59.63
2022-12-17T07:30:56.599Z,58.37
2022-12-17T07:34:00.748Z,59.20
2022-12-17T07:37:01.521Z,63.57
2022-12-17T07:40:06.981Z,51.00
2022-12-17T07:43:14.392Z,53.67
2022-12-17T07:46:18.648Z,59.60
2022-12-17T07:49:25.977Z,56.27
2022-12-17T07:52:30.509Z,62.27
2022-12-17T07:55:36.384Z,56.67
2022-12-17T07:58:51.967Z,49.30
2022-12-17T08:02:11.145Z,51.73
2022-12-17T08:05:15.555Z,67.40
2022-12-17T08:08:26.454Z,63.50
2022-12-17T08:11:31.971Z,49.70
2022-12-17T08:14:36.068Z,44.47
2022-12-17T08:17:40.147Z,35.83
2022-12-17T08:20:44.348Z,38.43
2022-12-17T08:23:48.552Z,48.63
2022-12-17T08:26:53.937Z,43.73
2022-12-17T08:29:58.015Z,39.23
2022-12-17T08:33:02.241Z,59.63
2022-12-17T08:36:10.215Z,52.90
2022-12-17T08:39:14.468Z,42.63
2022-12-17T08:42:19.952Z,35.43
2022-12-17T08:45:24.973Z,45.00
2022-12-17T08:48:29.698Z,63.17
2022-12-17T08:51:33.723Z,44.87
2022-12-17T08:54:37.746Z,42.00
2022-12-17T08:57:43.190Z,42.53
2022-12-17T09:00:47.286Z,38.77
2022-12-17T09:03:51.466Z,51.47
2022-12-17T09:06:55.581Z,41.80
2022-12-17T09:10:00.378Z,46.43
2022-12-17T09:13:05.966Z,42.47
2022-12-17T09:16:11.369Z,53.60
2022-12-17T09:19:15.546Z,40.17
2022-12-17T09:22:19.734Z,37.83
2022-12-17T09:25:24.262Z,43.23
2022-12-17T09:28:29.886Z,46.23
2022-12-17T09:31:37.328Z,39.50
2022-12-17T09:34:42.213Z,42.03
2022-12-17T09:37:46.298Z,46.27
2022-12-17T09:40:50.974Z,33.27
2022-12-17T09:44:05.544Z,37.33
2022-12-17T09:47:15.671Z,42.77
2022-12-17T09:50:37.383Z,37.53
2022-12-17T09:53:49.468Z,35.57
2022-12-17T09:56:55.705Z,39.73
2022-12-17T10:00:02.813Z,37.20
2022-12-17T10:03:16.964Z,46.50
2022-12-17T10:06:26.551Z,37.17
2022-12-17T10:09:32.700Z,40.57
2022-12-17T10:12:38.919Z,42.93
2022-12-17T10:15:44.506Z,37.47
2022-12-17T10:18:50.344Z,43.80
2022-12-17T10:21:57.176Z,44.83
2022-12-17T10:25:04.257Z,39.50
2022-12-17T10:28:08.286Z,31.13
2022-12-17T10:31:14.487Z,41.00
2022-12-17T10:34:18.536Z,42.67
2022-12-17T10:37:25.096Z,35.37
2022-12-17T10:40:39.090Z,35.33
2022-12-17T10:43:45.939Z,43.87
2022-12-17T10:46:52.973Z,44.33
2022-12-17T10:49:58.561Z,32.87
2022-12-17T10:53:04.299Z,46.50
2022-12-17T10:56:11.364Z,43.30
2022-12-17T10:59:15.487Z,47.33
2022-12-17T11:02:21.635Z,51.73
2022-12-17T11:05:33.197Z,45.87
2022-12-17T11:08:38.659Z,35.87
2022-12-17T11:11:44.128Z,43.10
2022-12-17T11:14:50.772Z,52.37
2022-12-17T11:17:58.939Z,43.77
2022-12-17T11:21:09.331Z,43.57
2022-12-17T11:24:22.041Z,45.67
2022-12-17T11:27:30.282Z,42.17
2022-12-17T11:30:35.906Z,41.30
2022-12-17T11:33:48.570Z,42.27
2022-12-17T11:36:59.913Z,46.97
2022-12-17T11:40:13.204Z,47.13
2022-12-17T11:43:21.379Z,33.70
2022-12-17T11:46:37.662Z,34.77
2022-12-17T11:49:54.529Z,35.23
2022-12-17T11:53:06.774Z,35.43
2022-12-17T11:56:21.272Z,32.70
2022-12-17T11:59:32.940Z,32.43
2022-12-17T12:02:53.861Z,35.57
2022-12-17T12:06:08.590Z,41.83
2022-12-17T12:09:25.786Z,37.50
2022-12-17T12:12:38.787Z,33.13
2022-12-17T12:15:55.112Z,36.03
2022-12-17T12:19:09.741Z,38.63
2022-12-17T12:22:30.974Z,35.83
2022-12-17T12:25:44.842Z,50.13
2022-12-17T12:28:56.355Z,50.10
2022-12-17T12:32:09.077Z,42.83
2022-12-17T12:35:17.521Z,37.00
2022-12-17T12:38:36.157Z,40.83
2022-12-17T12:41:53.192Z,38.43
2022-12-17T12:45:06.298Z,54.60
2022-12-17T12:48:16.443Z,45.27
2022-12-17T12:51:33.943Z,28.33
2022-12-17T12:54:47.415Z,30.93
2022-12-17T12:57:53.738Z,44.53
2022-12-17T13:01:10.216Z,35.90
2022-12-17T13:04:16.394Z,38.90
2022-12-17T13:07:03.057Z,39.57
2022-12-17T13:09:53.423Z,49.33
2022-12-17T13:12:46.669Z,39.53
2022-12-17T13:15:39.098Z,38.40
2022-12-17T13:18:33.334Z,42.50
2022-12-17T13:21:29.726Z,39.37
2022-12-17T13:24:28.000Z,37.03
2022-12-17T13:27:32.119Z,36.03
2022-12-17T13:30:35.709Z,35.77
2022-12-17T13:33:32.234Z,41.10
2022-12-17T13:36:24.730Z,35.80
2022-12-17T13:39:27.154Z,32.57
2022-12-17T13:42:20.040Z,37.60
2022-12-17T13:45:15.752Z,36.87
2022-12-17T13:48:02.509Z,37.10
2022-12-17T13:50:56.291Z,39.80
2022-12-17T13:53:53.972Z,38.67
2022-12-17T13:56:41.067Z,39.53
2022-12-17T13:59:29.979Z,46.00
2022-12-17T14:02:26.913Z,45.00
2022-12-17T14:05:24.925Z,38.10
2022-12-17T14:08:17.492Z,39.10
2022-12-17T14:11:22.358Z,35.33
2022-12-17T14:14:31.648Z,32.93
2022-12-17T14:17:20.941Z,29.37
2022-12-17T14:20:14.649Z,34.10
2022-12-17T14:23:04.510Z,32.27
2022-12-17T14:25:51.728Z,40.70
2022-12-17T14:28:50.270Z,34.67
2022-12-17T14:31:37.654Z,33.10
2022-12-17T14:34:24.661Z,35.10
2022-12-17T14:37:20.799Z,34.03
2022-12-17T14:40:09.148Z,39.80
2022-12-17T14:43:01.051Z,30.53
2022-12-17T14:46:24.292Z,29.17
2022-12-17T14:49:18.622Z,72.43
2022-12-17T14:52:14.381Z,38.30
2022-12-17T14:55:02.718Z,39.17
2022-12-17T14:57:49.879Z,30.47
2022-12-17T15:00:39.401Z,38.27
2022-12-17T15:03:28.989Z,35.03
2022-12-17T15:06:19.443Z,38.37
2022-12-17T15:09:06.388Z,35.07
2022-12-17T15:11:54.711Z,34.60
2022-12-17T15:14:41.149Z,40.67
2022-12-17T15:17:27.960Z,35.47
2022-12-17T15:20:18.470Z,34.73
2022-12-17T15:23:05.412Z,40.53
2022-12-17T15:25:53.176Z,28.20
2022-12-17T15:28:40.983Z,32.20
2022-12-17T15:31:33.564Z,32.83
2022-12-17T15:34:21.824Z,27.53
2022-12-17T15:37:08.559Z,33.83
2022-12-17T15:39:56.447Z,43.80
2022-12-17T15:43:04.645Z,39.17
2022-12-17T15:45:54.567Z,45.53
2022-12-17T15:48:48.163Z,40.90
2022-12-17T15:51:36.697Z,33.43
2022-12-17T15:54:23.460Z,42.53
2022-12-17T15:57:15.387Z,33.37
2022-12-17T16:00:06.164Z,38.70
2022-12-17T16:02:54.639Z,34.80
2022-12-17T16:05:41.628Z,35.37
2022-12-17T16:08:28.516Z,33.53
2022-12-17T16:11:16.204Z,34.67
2022-12-17T16:14:02.618Z,37.50
2022-12-17T16:16:49.409Z,32.37
2022-12-17T16:19:37.794Z,44.50
2022-12-17T16:22:24.517Z,26.13
2022-12-17T16:25:11.471Z,35.80
2022-12-17T16:27:58.411Z,40.80
2022-12-17T16:30:45.176Z,37.80
2022-12-17T16:33:35.789Z,36.93
2022-12-17T16:36:24.125Z,38.13
2022-12-17T16:39:16.383Z,42.67
2022-12-17T16:42:03.280Z,46.63
2022-12-17T16:44:50.283Z,37.87
2022-12-17T16:47:37.103Z,45.60
2022-12-17T16:50:25.015Z,16.33
2022-12-17T16:53:13.649Z,52.77
2022-12-17T16:56:00.367Z,39.03
2022-12-17T16:58:47.406Z,50.87
2022-12-17T17:01:34.078Z,39.17
2022-12-17T17:04:23.437Z,46.20
2022-12-17T17:07:10.171Z,40.57
2022-12-17T17:09:58.879Z,41.83
2022-12-17T17:12:45.906Z,35.63
2022-12-17T17:15:33.305Z,27.23
2022-12-17T17:18:24.764Z,47.85
2022-12-17T17:21:18.050Z,48.60
2022-12-17T17:24:09.979Z,41.03
2022-12-17T17:26:58.150Z,45.77
2022-12-17T17:29:44.940Z,42.43
2022-12-17T17:32:32.374Z,43.63
2022-12-17T17:35:18.977Z,39.63
2022-12-17T17:38:05.763Z,46.63
2022-12-17T17:40:57.620Z,55.67
2022-12-17T17:43:46.151Z,45.57
2022-12-17T17:46:33.922Z,52.35
2022-12-17T17:49:21.384Z,46.93
2022-12-17T17:52:09.986Z,48.70
2022-12-17T17:54:57.767Z,44.37
2022-12-17T17:57:44.579Z,53.10
2022-12-17T18:00:32.825Z,47.45
2022-12-17T18:03:20.405Z,50.70
2022-12-17T18:06:09.294Z,41.53
2022-12-17T18:08:57.182Z,26.63
2022-12-17T18:11:45.507Z,41.30
2022-12-17T18:14:37.480Z,44.53
2022-12-17T18:17:29.727Z,47.83
2022-12-17T18:20:17.167Z,45.90
2022-12-17T18:23:03.870Z,39.90
2022-12-17T18:25:50.651Z,45.17
2022-12-17T18:28:38.518Z,57.75
2022-12-17T18:31:27.500Z,52.73
2022-12-17T18:34:19.059Z,42.77
2022-12-17T18:37:06.375Z,39.83
2022-12-17T18:39:52.889Z,55.17
2022-12-17T18:42:57.048Z,53.67
2022-12-17T18:45:45.377Z,32.50
2022-12-17T18:48:32.144Z,52.97
2022-12-17T18:51:21.782Z,61.87
2022-12-17T18:54:09.310Z,48.20
2022-12-17T18:57:01.932Z,54.63
2022-12-17T18:59:50.191Z,50.05
2022-12-17T19:02:37.307Z,54.03
2022-12-17T19:05:24.012Z,77.10
2022-12-17T19:08:12.219Z,62.33
2022-12-17T19:11:05.453Z,67.63
2022-12-17T19:13:52.381Z,63.20
2022-12-17T19:16:39.351Z,52.60
2022-12-17T19:19:26.279Z,60.17
2022-12-17T19:22:13.453Z,75.77
2022-12-17T19:25:01.727Z,64.55
2022-12-17T19:27:48.340Z,65.73
2022-12-17T19:30:35.169Z,63.90
2022-12-17T19:33:21.956Z,69.83
2022-12-17T19:36:12.077Z,45.90
2022-12-17T19:39:01.487Z,56.33
2022-12-17T19:41:51.342Z,50.27
2022-12-17T19:44:38.032Z,61.30
2022-12-17T19:47:25.273Z,55.17
2022-12-17T19:50:12.025Z,44.70
2022-12-17T19:52:58.775Z,56.57
2022-12-17T19:55:45.683Z,51.30
2022-12-17T19:58:33.842Z,49.50
2022-12-17T20:01:22.395Z,49.93
2022-12-17T20:04:10.260Z,57.60
2022-12-17T20:06:56.751Z,52.90
2022-12-17T20:09:44.751Z,44.27
2022-12-17T20:12:31.387Z,51.20
2022-12-17T20:15:19.871Z,56.03
2022-12-17T20:18:06.688Z,44.80
2022-12-17T20:20:53.248Z,56.17
2022-12-17T20:23:40.510Z,76.73
2022-12-17T20:26:29.825Z,45.53
2022-12-17T20:29:16.521Z,49.70
2022-12-17T20:32:05.038Z,55.37
2022-12-17T20:34:52.376Z,62.13
2022-12-17T20:37:39.405Z,50.37
2022-12-17T20:40:26.270Z,50.87
2022-12-17T20:43:13.504Z,53.17
2022-12-17T20:46:03.136Z,51.67
2022-12-17T20:48:52.655Z,53.37
2022-12-17T20:51:40.515Z,60.97
2022-12-17T20:54:27.319Z,57.03
2022-12-17T20:57:14.227Z,58.97
2022-12-17T21:00:01.222Z,55.57
2022-12-17T21:02:48.161Z,60.30
2022-12-17T21:05:37.588Z,56.27
2022-12-17T21:08:24.670Z,58.67
2022-12-17T21:11:11.610Z,49.43
2022-12-17T21:13:58.600Z,51.43
2022-12-17T21:16:46.423Z,68.23
2022-12-17T21:19:32.895Z,54.20
2022-12-17T21:22:21.129Z,55.03
2022-12-17T21:25:09.357Z,53.57
2022-12-17T21:27:55.896Z,49.70
2022-12-17T21:30:42.776Z,44.63
2022-12-17T21:33:29.755Z,47.33
2022-12-17T21:36:18.453Z,52.97
2022-12-17T21:39:09.566Z,53.40
2022-12-17T21:42:13.855Z,43.38
2022-12-17T21:45:00.612Z,39.63
2022-12-17T21:47:47.517Z,41.80
2022-12-17T21:50:34.846Z,47.83
2022-12-17T21:53:21.374Z,45.88
2022-12-17T21:56:11.603Z,51.20
2022-12-17T21:59:00.397Z,46.53
2022-12-17T22:01:47.448Z,42.67
2022-12-17T22:04:34.199Z,50.88
2022-12-17T22:07:23.448Z,47.83
2022-12-17T22:10:27.261Z,39.13
2022-12-17T22:13:37.309Z,55.58
2022-12-17T22:16:24.593Z,53.60
2022-12-17T22:19:13.527Z,46.22
2022-12-17T22:22:01.468Z,46.63
2022-12-17T22:24:48.245Z,46.53
2022-12-17T22:27:35.263Z,44.73
2022-12-17T22:30:41.037Z,55.92
2022-12-17T22:33:41.239Z,54.43
2022-12-17T22:38:51.376Z,39.00
2022-12-17T22:41:23.241Z,42.58
2022-12-17T22:44:42.468Z,44.10
2022-12-17T22:46:19.864Z,50.43
2022-12-17T22:49:08.250Z,43.85
2022-12-17T22:51:58.505Z,29.00
2022-12-17T22:54:50.989Z,48.03
2022-12-17T22:57:38.875Z,48.70
2022-12-17T23:00:31.561Z,44.00
2022-12-17T23:03:22.873Z,41.17
2022-12-17T23:06:15.262Z,30.10
2022-12-17T23:09:04.631Z,37.60
2022-12-17T23:11:53.311Z,31.42
2022-12-17T23:14:42.933Z,43.45
2022-12-17T23:17:36.764Z,39.45
2022-12-17T23:20:36.661Z,42.55
2022-12-17T23:23:25.830Z,42.90
2022-12-17T23:26:25.175Z,37.88
2022-12-17T23:29:22.116Z,40.20
2022-12-17T23:32:13.138Z,44.30
2022-12-17T23:35:03.286Z,38.20
2022-12-17T23:37:53.027Z,34.42
2022-12-17T23:40:40.123Z,35.67
2022-12-17T23:43:26.917Z,36.30
2022-12-17T23:46:14.417Z,30.27
2022-12-17T23:49:01.215Z,27.20
2022-12-17T23:51:48.049Z,37.28
2022-12-17T23:54:36.197Z,34.22
2022-12-17T23:57:23.017Z,32.92
